createdAt,value
2022-11-05T00:01:00.646Z,6.28
2022-11-05T00:02:22.637Z,6.33
2022-11-05T00:03:43.327Z,6.34
2022-11-05T00:05:03.997Z,6.33
2022-11-05T00:06:27.974Z,6.41
2022-11-05T00:08:06.265Z,6.34
2022-11-05T00:09:29.260Z,6.39
2022-11-05T00:10:34.316Z,6.34
2022-11-05T00:11:54.679Z,6.24
2022-11-05T00:13:18.255Z,6.14
2022-11-05T00:14:39.081Z,5.99
2022-11-05T00:15:59.772Z,5.85
2022-11-05T00:17:01.883Z,5.71
2022-11-05T00:18:04.028Z,5.56
2022-11-05T00:19:09.948Z,5.63
2022-11-05T00:20:13.678Z,5.64
2022-11-05T00:21:34.211Z,5.73
2022-11-05T00:22:55.218Z,5.71
2022-11-05T00:24:18.206Z,5.88
2022-11-05T00:25:23.822Z,5.81
2022-11-05T00:26:25.928Z,5.78
2022-11-05T00:27:28.351Z,5.92
2022-11-05T00:28:31.569Z,5.98
2022-11-05T00:29:33.689Z,5.94
2022-11-05T00:30:35.800Z,5.92
2022-11-05T00:31:37.958Z,5.94
2022-11-05T00:32:40.506Z,6.01
2022-11-05T00:33:43.096Z,6.07
2022-11-05T00:34:45.197Z,6.02
2022-11-05T00:35:47.296Z,6.11
2022-11-05T00:36:49.429Z,6.10
2022-11-05T00:37:53.718Z,6.15
2022-11-05T00:38:55.814Z,6.16
2022-11-05T00:39:57.926Z,6.12
2022-11-05T00:41:00.030Z,6.06
2022-11-05T00:42:20.685Z,6.08
2022-11-05T00:43:41.376Z,6.08
2022-11-05T00:45:01.628Z,5.93
2022-11-05T00:46:03.774Z,5.90
2022-11-05T00:47:24.416Z,5.88
2022-11-05T00:48:44.747Z,5.90
2022-11-05T00:49:46.833Z,6.01
2022-11-05T00:50:48.909Z,6.08
2022-11-05T00:52:11.083Z,6.09
2022-11-05T00:53:13.628Z,6.12
2022-11-05T00:54:15.945Z,6.12
2022-11-05T00:55:18.024Z,6.14
2022-11-05T00:56:20.123Z,6.17
2022-11-05T00:57:22.301Z,6.16
2022-11-05T00:58:24.995Z,6.15
2022-11-05T00:59:27.071Z,6.03
2022-11-05T01:00:31.109Z,6.13
2022-11-05T01:01:33.298Z,5.97
2022-11-05T01:02:35.621Z,5.96
2022-11-05T01:03:39.527Z,6.02
2022-11-05T01:04:41.614Z,5.88
2022-11-05T01:05:47.450Z,5.87
2022-11-05T01:06:49.559Z,5.80
2022-11-05T01:07:53.402Z,5.88
2022-11-05T01:08:55.918Z,5.80
2022-11-05T01:09:58.053Z,5.72
2022-11-05T01:11:00.303Z,5.60
2022-11-05T01:12:02.382Z,5.54
2022-11-05T01:13:08.773Z,5.56
2022-11-05T01:14:16.063Z,5.59
2022-11-05T01:15:19.642Z,5.57
2022-11-05T01:16:21.785Z,5.55
2022-11-05T01:17:23.887Z,5.52
2022-11-05T01:18:26.125Z,5.51
2022-11-05T01:19:29.357Z,5.52
2022-11-05T01:20:31.992Z,5.51
2022-11-05T01:21:34.408Z,5.52
2022-11-05T01:22:36.509Z,5.47
2022-11-05T01:23:38.643Z,5.48
2022-11-05T01:24:40.737Z,5.44
2022-11-05T01:25:43.692Z,5.50
2022-11-05T01:26:45.812Z,5.49
2022-11-05T01:27:47.946Z,5.45
2022-11-05T01:28:54.514Z,5.59
2022-11-05T01:29:56.709Z,5.52
2022-11-05T01:30:58.809Z,5.53
2022-11-05T01:32:00.959Z,5.50
2022-11-05T01:33:03.499Z,5.61
2022-11-05T01:34:05.615Z,5.64
2022-11-05T01:35:10.972Z,5.67
2022-11-05T01:36:13.376Z,5.59
2022-11-05T01:37:15.544Z,5.60
2022-11-05T01:38:19.047Z,5.58
2022-11-05T01:39:21.132Z,5.55
2022-11-05T01:40:24.629Z,5.56
2022-11-05T01:41:26.742Z,5.46
2022-11-05T01:42:30.996Z,5.39
2022-11-05T01:43:57.325Z,5.53
2022-11-05T01:45:08.349Z,5.52
2022-11-05T01:46:11.186Z,5.37
2022-11-05T01:47:42.961Z,5.48
2022-11-05T01:48:47.009Z,5.45
2022-11-05T01:49:49.153Z,5.44
2022-11-05T01:51:08.642Z,5.49
2022-11-05T01:52:10.818Z,5.29
2022-11-05T01:53:20.444Z,5.29
2022-11-05T01:54:26.927Z,5.22
2022-11-05T01:55:33.957Z,5.11
2022-11-05T01:56:41.048Z,5.05
2022-11-05T01:57:43.210Z,5.01
2022-11-05T01:58:53.113Z,5.10
2022-11-05T01:59:59.377Z,5.12
2022-11-05T02:01:02.137Z,5.09
2022-11-05T02:02:07.815Z,5.13
2022-11-05T02:03:13.034Z,5.09
2022-11-05T02:04:26.093Z,5.13
2022-11-05T02:05:28.711Z,5.09
2022-11-05T02:06:34.756Z,5.21
2022-11-05T02:07:37.053Z,5.15
2022-11-05T02:09:01.921Z,5.35
2022-11-05T02:10:07.572Z,5.34
2022-11-05T02:11:13.088Z,5.33
2022-11-05T02:12:15.485Z,5.31
2022-11-05T02:13:17.643Z,5.35
2022-11-05T02:14:20.348Z,5.34
2022-11-05T02:15:37.455Z,5.50
2022-11-05T02:17:01.865Z,5.51
2022-11-05T02:18:16.474Z,5.42
2022-11-05T02:19:46.511Z,5.45
2022-11-05T02:21:26.380Z,5.50
2022-11-05T02:22:50.175Z,5.54
2022-11-05T02:24:07.374Z,5.51
2022-11-05T02:25:34.508Z,5.55
2022-11-05T02:27:12.797Z,5.54
2022-11-05T02:28:37.300Z,5.52
2022-11-05T02:30:18.002Z,5.50
2022-11-05T02:31:47.657Z,5.57
2022-11-05T02:33:05.657Z,5.50
2022-11-05T02:34:35.532Z,5.44
2022-11-05T02:36:19.082Z,5.41
2022-11-05T02:37:45.690Z,5.35
2022-11-05T02:39:02.990Z,5.20
2022-11-05T02:40:08.238Z,5.24
2022-11-05T02:42:04.551Z,5.21
2022-11-05T02:43:15.312Z,5.14
2022-11-05T02:44:35.489Z,5.05
2022-11-05T02:46:10.563Z,5.02
2022-11-05T02:47:36.915Z,4.94
2022-11-05T02:48:41.936Z,4.84
2022-11-05T02:50:13.562Z,4.92
2022-11-05T02:51:40.670Z,4.88
2022-11-05T02:52:51.660Z,4.89
2022-11-05T02:54:01.678Z,4.97
2022-11-05T02:55:06.911Z,4.97
2022-11-05T02:56:32.565Z,4.89
2022-11-05T02:57:37.541Z,4.90
2022-11-05T02:58:39.702Z,4.88
2022-11-05T02:59:41.819Z,4.82
2022-11-05T03:00:51.325Z,4.95
2022-11-05T03:01:54.781Z,4.81
2022-11-05T03:02:57.054Z,4.84
2022-11-05T03:04:01.129Z,4.98
2022-11-05T03:05:04.394Z,5.02
2022-11-05T03:06:24.081Z,5.10
2022-11-05T03:07:32.282Z,5.06
2022-11-05T03:08:52.611Z,5.28
2022-11-05T03:10:33.620Z,5.35
2022-11-05T03:11:51.231Z,5.45
2022-11-05T03:12:57.043Z,5.45
2022-11-05T03:14:20.812Z,5.54
2022-11-05T03:15:25.929Z,5.62
2022-11-05T03:16:41.974Z,5.69
2022-11-05T03:17:44.696Z,5.55
2022-11-05T03:18:58.466Z,5.69
2022-11-05T03:20:25.241Z,5.79
2022-11-05T03:21:41.129Z,5.74
2022-11-05T03:22:50.583Z,5.76
2022-11-05T03:24:27.738Z,5.78
2022-11-05T03:25:30.458Z,5.71
2022-11-05T03:26:54.226Z,5.78
2022-11-05T03:28:01.179Z,5.66
2022-11-05T03:29:11.424Z,5.69
2022-11-05T03:30:16.201Z,5.70
2022-11-05T03:31:20.368Z,5.64
2022-11-05T03:32:24.301Z,5.69
2022-11-05T03:33:30.027Z,5.68
2022-11-05T03:34:38.775Z,5.73
2022-11-05T03:35:47.909Z,5.71
2022-11-05T03:36:54.522Z,5.61
2022-11-05T03:38:02.020Z,5.61
2022-11-05T03:39:07.848Z,5.60
2022-11-05T03:40:12.191Z,5.56
2022-11-05T03:41:16.082Z,5.59
2022-11-05T03:42:23.594Z,5.62
2022-11-05T03:43:31.785Z,5.65
2022-11-05T03:44:39.741Z,5.60
2022-11-05T03:45:47.393Z,5.68
2022-11-05T03:46:53.077Z,5.62
2022-11-05T03:47:58.819Z,5.63
2022-11-05T03:49:04.406Z,5.57
2022-11-05T03:50:25.308Z,5.63
2022-11-05T03:51:31.119Z,5.47
2022-11-05T03:52:43.866Z,5.49
2022-11-05T03:53:51.915Z,5.40
2022-11-05T03:54:54.250Z,5.33
2022-11-05T03:56:02.641Z,5.50
2022-11-05T03:57:14.377Z,5.47
2022-11-05T03:58:18.688Z,5.41
2022-11-05T03:59:22.057Z,5.39
2022-11-05T04:00:24.245Z,5.30
2022-11-05T04:01:27.483Z,5.34
2022-11-05T04:02:31.598Z,5.40
2022-11-05T04:03:36.545Z,5.34
2022-11-05T04:04:39.471Z,5.41
2022-11-05T04:05:41.682Z,5.35
2022-11-05T04:07:02.160Z,5.28
2022-11-05T04:08:23.106Z,5.35
2022-11-05T04:09:43.647Z,5.60
2022-11-05T04:11:04.538Z,5.58
2022-11-05T04:12:25.367Z,5.69
2022-11-05T04:13:27.834Z,5.54
2022-11-05T04:14:31.129Z,5.51
2022-11-05T04:15:53.175Z,5.43
2022-11-05T04:17:07.215Z,5.39
2022-11-05T04:18:09.303Z,5.34
2022-11-05T04:19:11.402Z,5.38
2022-11-05T04:20:31.917Z,5.38
2022-11-05T04:21:52.197Z,5.34
2022-11-05T04:23:22.909Z,5.47
2022-11-05T04:24:25.006Z,5.28
2022-11-05T04:25:27.190Z,5.20
2022-11-05T04:26:29.272Z,5.17
2022-11-05T04:27:31.569Z,5.16
2022-11-05T04:28:53.685Z,5.10
2022-11-05T04:30:14.498Z,5.05
2022-11-05T04:31:16.622Z,5.02
2022-11-05T04:32:18.729Z,4.95
2022-11-05T04:33:20.852Z,4.94
2022-11-05T04:34:23.201Z,4.93
2022-11-05T04:35:26.284Z,4.93
2022-11-05T04:36:28.722Z,4.86
2022-11-05T04:37:30.821Z,4.88
2022-11-05T04:38:32.961Z,4.84
2022-11-05T04:39:35.069Z,4.78
2022-11-05T04:40:38.084Z,4.88
2022-11-05T04:41:40.271Z,4.85
2022-11-05T04:42:42.364Z,4.81
2022-11-05T04:43:44.944Z,4.81
2022-11-05T04:44:47.108Z,4.76
2022-11-05T04:45:49.208Z,4.79
2022-11-05T04:46:51.336Z,4.76
2022-11-05T04:47:53.554Z,4.75
2022-11-05T04:48:55.686Z,4.67
2022-11-05T04:49:57.792Z,4.71
2022-11-05T04:51:00.008Z,4.69
2022-11-05T04:52:02.134Z,4.61
2022-11-05T04:53:04.303Z,4.64
2022-11-05T04:54:06.436Z,4.56
2022-11-05T04:55:08.645Z,4.57
2022-11-05T04:56:21.556Z,4.63
2022-11-05T04:57:23.668Z,4.56
2022-11-05T04:58:25.804Z,4.59
2022-11-05T04:59:27.962Z,4.58
2022-11-05T05:00:30.206Z,4.57
2022-11-05T05:01:32.835Z,4.59
2022-11-05T05:02:38.284Z,4.62
2022-11-05T05:03:40.480Z,4.53
2022-11-05T05:04:42.647Z,4.53
2022-11-05T05:05:44.740Z,4.51
2022-11-05T05:06:46.856Z,4.62
2022-11-05T05:07:49.001Z,4.65
2022-11-05T05:08:51.729Z,4.63
2022-11-05T05:09:54.942Z,4.62
2022-11-05T05:11:01.661Z,4.77
2022-11-05T05:12:03.845Z,4.70
2022-11-05T05:13:05.967Z,4.71
2022-11-05T05:14:08.674Z,4.76
2022-11-05T05:15:10.890Z,4.75
2022-11-05T05:16:27.698Z,4.91
2022-11-05T05:17:29.832Z,4.78
2022-11-05T05:18:31.965Z,4.79
2022-11-05T05:19:56.781Z,4.79
2022-11-05T05:21:17.967Z,4.78
2022-11-05T05:22:20.191Z,4.72
2022-11-05T05:23:22.287Z,4.76
2022-11-05T05:24:24.986Z,4.73
2022-11-05T05:25:27.173Z,4.78
2022-11-05T05:26:29.555Z,4.76
2022-11-05T05:27:32.076Z,4.75
2022-11-05T05:28:34.578Z,4.71
2022-11-05T05:29:36.708Z,4.77
2022-11-05T05:30:38.814Z,4.77
2022-11-05T05:31:41.837Z,4.80
2022-11-05T05:32:44.180Z,4.86
2022-11-05T05:33:46.306Z,4.82
2022-11-05T05:34:48.383Z,4.81
2022-11-05T05:35:50.497Z,4.80
2022-11-05T05:36:52.595Z,4.75
2022-11-05T05:37:57.868Z,4.90
2022-11-05T05:39:00.050Z,4.78
2022-11-05T05:40:02.133Z,4.75
2022-11-05T05:41:04.341Z,4.72
2022-11-05T05:42:06.534Z,4.73
2022-11-05T05:43:08.877Z,4.78
2022-11-05T05:44:11.240Z,4.84
2022-11-05T05:45:13.429Z,4.87
2022-11-05T05:46:17.558Z,4.93
2022-11-05T05:47:19.631Z,4.82
2022-11-05T05:48:21.713Z,4.85
2022-11-05T05:49:23.856Z,4.82
2022-11-05T05:50:26.058Z,4.72
2022-11-05T05:51:28.330Z,4.73
2022-11-05T05:52:30.650Z,4.66
2022-11-05T05:53:33.338Z,4.66
2022-11-05T05:54:41.326Z,4.64
2022-11-05T05:55:44.756Z,4.66
2022-11-05T05:56:46.873Z,4.66
2022-11-05T05:57:49.476Z,4.66
2022-11-05T05:58:52.229Z,4.60
2022-11-05T05:59:54.340Z,4.57
2022-11-05T06:01:01.153Z,4.57
2022-11-05T06:02:03.462Z,4.50
2022-11-05T06:03:06.532Z,4.44
2022-11-05T06:04:09.697Z,4.50
2022-11-05T06:05:11.816Z,4.42
2022-11-05T06:06:15.592Z,4.49
2022-11-05T06:07:17.714Z,4.47
2022-11-05T06:08:19.871Z,4.45
2022-11-05T06:09:22.005Z,4.51
2022-11-05T06:10:25.109Z,4.56
2022-11-05T06:11:27.409Z,4.48
2022-11-05T06:12:30.178Z,4.52
2022-11-05T06:13:32.772Z,4.57
2022-11-05T06:14:34.872Z,4.56
2022-11-05T06:15:36.995Z,4.60
2022-11-05T06:16:40.070Z,4.73
2022-11-05T06:17:45.110Z,4.86
2022-11-05T06:18:47.326Z,4.79
2022-11-05T06:19:49.428Z,4.78
2022-11-05T06:20:51.540Z,4.80
2022-11-05T06:21:53.670Z,4.76
2022-11-05T06:23:01.128Z,4.84
2022-11-05T06:24:04.824Z,4.72
2022-11-05T06:25:08.047Z,4.83
2022-11-05T06:26:16.737Z,4.96
2022-11-05T06:27:19.009Z,4.90
2022-11-05T06:28:21.137Z,4.94
2022-11-05T06:29:23.256Z,4.96
2022-11-05T06:30:25.439Z,4.99
2022-11-05T06:31:27.578Z,5.03
2022-11-05T06:32:31.173Z,4.99
2022-11-05T06:33:33.527Z,5.00
2022-11-05T06:34:36.956Z,5.05
2022-11-05T06:35:39.080Z,5.02
2022-11-05T06:36:41.377Z,5.07
2022-11-05T06:37:43.560Z,5.10
2022-11-05T06:38:45.769Z,5.10
2022-11-05T06:39:48.242Z,5.13
2022-11-05T06:40:50.377Z,5.18
2022-11-05T06:42:21.334Z,5.22
2022-11-05T06:43:14.889Z,5.26
2022-11-05T06:44:17.228Z,5.33
2022-11-05T06:45:20.091Z,5.36
2022-11-05T06:46:22.276Z,5.39
2022-11-05T06:47:24.532Z,5.41
2022-11-05T06:48:26.807Z,5.47
2022-11-05T06:49:29.032Z,5.62
2022-11-05T06:50:31.279Z,5.74
2022-11-05T06:51:33.468Z,5.84
2022-11-05T06:52:40.802Z,6.02
2022-11-05T06:53:43.275Z,6.13
2022-11-05T06:54:45.384Z,6.35
2022-11-05T06:55:50.269Z,6.50
2022-11-05T06:56:52.456Z,6.65
2022-11-05T06:57:55.286Z,6.78
2022-11-05T06:58:57.401Z,6.87
2022-11-05T07:00:03.258Z,6.99
2022-11-05T07:01:09.856Z,7.05
2022-11-05T07:02:13.538Z,7.21
2022-11-05T07:03:16.029Z,7.29
2022-11-05T07:04:18.171Z,7.45
2022-11-05T07:05:20.300Z,7.55
2022-11-05T07:06:22.483Z,7.57
2022-11-05T07:07:24.592Z,7.67
2022-11-05T07:08:31.301Z,7.93
2022-11-05T07:09:33.466Z,8.00
2022-11-05T07:10:35.572Z,8.13
2022-11-05T07:11:37.676Z,8.37
2022-11-05T07:12:39.957Z,8.63
2022-11-05T07:13:42.070Z,8.63
2022-11-05T07:14:44.162Z,8.63
2022-11-05T07:15:46.386Z,8.67
2022-11-05T07:16:48.564Z,8.67
2022-11-05T07:17:50.708Z,8.82
2022-11-05T07:18:52.947Z,9.20
2022-11-05T07:19:55.111Z,9.48
2022-11-05T07:20:59.349Z,9.50
2022-11-05T07:22:01.454Z,9.72
2022-11-05T07:23:05.911Z,9.96
2022-11-05T07:24:08.456Z,10.12
2022-11-05T07:25:10.581Z,10.16
2022-11-05T07:26:12.712Z,10.40
2022-11-05T07:27:14.849Z,10.01
2022-11-05T07:28:17.115Z,10.37
2022-11-05T07:29:19.234Z,10.65
2022-11-05T07:30:21.454Z,10.61
2022-11-05T07:31:23.573Z,10.79
2022-11-05T07:32:25.741Z,10.95
2022-11-05T07:33:32.358Z,10.67
2022-11-05T07:34:37.507Z,10.81
2022-11-05T07:35:39.688Z,10.95
2022-11-05T07:36:41.888Z,11.06
2022-11-05T07:37:45.464Z,11.15
2022-11-05T07:38:47.590Z,11.07
2022-11-05T07:39:49.681Z,11.19
2022-11-05T07:40:51.898Z,11.22
2022-11-05T07:41:58.037Z,11.53
2022-11-05T07:43:07.377Z,12.00
2022-11-05T07:44:09.593Z,12.28
2022-11-05T07:45:12.423Z,12.22
2022-11-05T07:46:14.540Z,12.45
2022-11-05T07:47:16.652Z,12.10
2022-11-05T07:48:18.763Z,12.15
2022-11-05T07:49:20.893Z,11.79
2022-11-05T07:50:25.370Z,12.24
2022-11-05T07:51:27.519Z,12.06
2022-11-05T07:52:32.060Z,12.21
2022-11-05T07:53:34.324Z,12.31
2022-11-05T07:54:36.418Z,12.70
2022-11-05T07:55:40.924Z,12.80
2022-11-05T07:56:43.099Z,12.94
2022-11-05T07:57:50.530Z,13.01
2022-11-05T07:58:52.690Z,12.68
2022-11-05T07:59:54.804Z,13.12
2022-11-05T08:00:57.726Z,13.17
2022-11-05T08:02:00.098Z,13.80
2022-11-05T08:03:08.231Z,14.07
2022-11-05T08:04:10.907Z,13.81
2022-11-05T08:05:13.083Z,14.08
2022-11-05T08:06:15.326Z,14.03
2022-11-05T08:07:17.425Z,14.20
2022-11-05T08:08:19.994Z,14.30
2022-11-05T08:09:22.200Z,14.36
2022-11-05T08:10:25.248Z,14.36
2022-11-05T08:11:27.459Z,14.16
2022-11-05T08:12:30.932Z,14.32
2022-11-05T08:13:34.118Z,14.26
2022-11-05T08:14:36.327Z,14.55
2022-11-05T08:15:38.881Z,14.26
2022-11-05T08:16:40.988Z,14.50
2022-11-05T08:17:43.404Z,14.26
2022-11-05T08:18:45.780Z,14.07
2022-11-05T08:19:47.926Z,14.51
2022-11-05T08:20:50.031Z,15.13
2022-11-05T08:21:52.412Z,15.12
2022-11-05T08:22:55.204Z,15.68
2022-11-05T08:23:57.340Z,16.00
2022-11-05T08:25:03.987Z,16.01
2022-11-05T08:26:09.768Z,16.12
2022-11-05T08:27:12.156Z,16.80
2022-11-05T08:28:14.344Z,16.70
2022-11-05T08:29:16.581Z,16.56
2022-11-05T08:30:18.701Z,17.21
2022-11-05T08:31:20.834Z,16.58
2022-11-05T08:32:22.951Z,16.25
2022-11-05T08:33:25.639Z,17.10
2022-11-05T08:34:27.820Z,16.00
2022-11-05T08:35:30.270Z,16.90
2022-11-05T08:36:34.234Z,16.14
2022-11-05T08:37:36.398Z,16.88
2022-11-05T08:38:38.501Z,17.13
2022-11-05T08:39:40.623Z,16.91
2022-11-05T08:40:45.252Z,16.94
2022-11-05T08:41:47.513Z,17.61
2022-11-05T08:42:49.609Z,17.44
2022-11-05T08:43:55.181Z,17.34
2022-11-05T08:44:57.400Z,17.56
2022-11-05T08:46:02.948Z,18.28
2022-11-05T08:47:05.108Z,18.73
2022-11-05T08:48:10.245Z,17.94
2022-11-05T08:49:12.477Z,18.64
2022-11-05T08:50:14.636Z,18.54
2022-11-05T08:51:16.816Z,18.04
2022-11-05T08:52:19.026Z,18.57
2022-11-05T08:53:21.316Z,18.03
2022-11-05T08:54:23.562Z,18.21
2022-11-05T08:55:26.505Z,18.33
2022-11-05T08:56:28.637Z,18.62
2022-11-05T08:57:30.722Z,19.02
2022-11-05T08:58:33.353Z,20.04
2022-11-05T08:59:35.470Z,20.22
2022-11-05T09:00:38.335Z,20.11
2022-11-05T09:01:40.821Z,20.62
2022-11-05T09:02:43.055Z,20.45
2022-11-05T09:03:45.248Z,20.02
2022-11-05T09:04:47.329Z,19.46
2022-11-05T09:05:49.605Z,19.79
2022-11-05T09:06:51.809Z,20.00
2022-11-05T09:07:59.433Z,19.32
2022-11-05T09:09:03.481Z,19.02
2022-11-05T09:10:31.388Z,19.34
2022-11-05T09:11:57.387Z,18.91
2022-11-05T09:12:56.340Z,18.95
2022-11-05T09:13:58.530Z,18.70
2022-11-05T09:15:00.652Z,17.96
2022-11-05T09:16:03.454Z,18.52
2022-11-05T09:17:15.469Z,19.59
2022-11-05T09:18:18.852Z,19.77
2022-11-05T09:19:21.041Z,19.45
2022-11-05T09:20:23.724Z,19.37
2022-11-05T09:21:25.925Z,19.55
2022-11-05T09:22:28.083Z,19.82
2022-11-05T09:23:30.173Z,20.35
2022-11-05T09:24:32.272Z,20.40
2022-11-05T09:25:34.691Z,20.49
2022-11-05T09:26:36.833Z,20.33
2022-11-05T09:27:38.965Z,19.97
2022-11-05T09:28:43.239Z,20.99
2022-11-05T09:29:45.345Z,20.62
2022-11-05T09:30:50.118Z,21.61
2022-11-05T09:31:52.373Z,20.68
2022-11-05T09:32:54.862Z,20.99
2022-11-05T09:33:56.983Z,21.03
2022-11-05T09:35:02.184Z,20.87
2022-11-05T09:36:05.058Z,21.35
2022-11-05T09:37:07.177Z,21.86
2022-11-05T09:38:09.312Z,21.88
2022-11-05T09:39:11.425Z,21.97
2022-11-05T09:40:18.085Z,22.49
2022-11-05T09:41:30.797Z,22.33
2022-11-05T09:42:39.077Z,22.79
2022-11-05T09:43:48.302Z,22.54
2022-11-05T09:45:01.811Z,22.35
2022-11-05T09:46:12.335Z,21.72
2022-11-05T09:47:31.096Z,22.76
2022-11-05T09:48:35.409Z,22.47
2022-11-05T09:49:58.859Z,22.79
2022-11-05T09:51:01.282Z,22.86
2022-11-05T09:52:03.613Z,23.51
2022-11-05T09:53:06.097Z,23.59
2022-11-05T09:54:11.742Z,24.33
2022-11-05T09:55:23.535Z,24.93
2022-11-05T09:56:31.403Z,24.26
2022-11-05T09:57:44.246Z,23.37
2022-11-05T09:59:14.255Z,23.39
2022-11-05T10:00:17.328Z,24.10
2022-11-05T10:01:24.836Z,23.19
2022-11-05T10:02:32.894Z,23.56
2022-11-05T10:03:43.101Z,23.46
2022-11-05T10:04:49.010Z,23.51
2022-11-05T10:05:53.755Z,22.51
2022-11-05T10:06:59.956Z,22.90
2022-11-05T10:08:11.072Z,22.18
2022-11-05T10:09:37.139Z,22.72
2022-11-05T10:10:49.492Z,22.12
2022-11-05T10:11:58.013Z,23.02
2022-11-05T10:13:07.801Z,22.23
2022-11-05T10:14:21.547Z,21.94
2022-11-05T10:15:33.018Z,22.15
2022-11-05T10:16:43.344Z,21.14
2022-11-05T10:17:52.928Z,22.18
2022-11-05T10:19:09.698Z,22.41
2022-11-05T10:20:24.624Z,22.71
2022-11-05T10:21:51.313Z,23.32
2022-11-05T10:22:56.862Z,23.63
2022-11-05T10:23:59.221Z,23.50
2022-11-05T10:25:01.470Z,23.77
2022-11-05T10:26:09.083Z,23.62
2022-11-05T10:27:17.872Z,22.75
2022-11-05T10:28:22.997Z,22.27
2022-11-05T10:29:32.390Z,21.65
2022-11-05T10:30:34.733Z,20.68
2022-11-05T10:31:38.420Z,21.06
2022-11-05T10:32:42.793Z,20.89
2022-11-05T10:33:50.855Z,21.84
2022-11-05T10:34:55.638Z,22.31
2022-11-05T10:36:06.765Z,22.99
2022-11-05T10:37:10.345Z,23.13
2022-11-05T10:38:14.844Z,22.58
2022-11-05T10:39:21.093Z,22.55
2022-11-05T10:40:54.681Z,21.87
2022-11-05T10:42:27.512Z,22.84
2022-11-05T10:43:32.480Z,22.81
2022-11-05T10:45:02.687Z,23.46
2022-11-05T10:46:24.796Z,23.40
2022-11-05T10:47:42.748Z,23.41
2022-11-05T10:48:50.769Z,22.38
2022-11-05T10:50:11.092Z,22.34
2022-11-05T10:51:13.894Z,21.85
2022-11-05T10:52:26.545Z,22.21
2022-11-05T10:53:35.466Z,21.75
2022-11-05T10:54:38.761Z,21.93
2022-11-05T10:55:43.743Z,22.08
2022-11-05T10:56:45.977Z,21.94
2022-11-05T10:57:51.600Z,21.56
2022-11-05T10:58:56.875Z,21.87
2022-11-05T11:00:15.005Z,21.75
2022-11-05T11:01:17.462Z,21.57
2022-11-05T11:02:26.271Z,22.30
2022-11-05T11:03:39.989Z,22.15
2022-11-05T11:04:42.278Z,21.10
2022-11-05T11:05:44.455Z,21.32
2022-11-05T11:06:58.575Z,21.36
2022-11-05T11:08:04.473Z,22.27
2022-11-05T11:09:17.765Z,22.34
2022-11-05T11:10:22.480Z,23.26
2022-11-05T11:11:28.573Z,23.18
2022-11-05T11:12:42.817Z,22.93
2022-11-05T11:13:59.143Z,22.95
2022-11-05T11:15:21.244Z,22.31
2022-11-05T11:16:31.980Z,22.41
2022-11-05T11:17:34.014Z,22.46
2022-11-05T11:18:41.904Z,22.33
2022-11-05T11:19:44.414Z,21.75
2022-11-05T11:20:46.713Z,21.47
2022-11-05T11:22:10.843Z,21.89
2022-11-05T11:23:16.451Z,22.60
2022-11-05T11:24:24.597Z,23.18
2022-11-05T11:25:30.316Z,21.85
2022-11-05T11:26:37.149Z,21.78
2022-11-05T11:27:39.375Z,22.26
2022-11-05T11:28:50.859Z,22.05
2022-11-05T11:30:01.715Z,22.60
2022-11-05T11:31:12.572Z,22.41
2022-11-05T11:32:17.197Z,22.72
2022-11-05T11:33:24.002Z,22.88
2022-11-05T11:34:33.816Z,22.16
2022-11-05T11:35:38.591Z,21.76
2022-11-05T11:36:48.831Z,22.08
2022-11-05T11:37:56.323Z,20.64
2022-11-05T11:39:01.003Z,21.12
2022-11-05T11:40:29.058Z,22.16
2022-11-05T11:41:36.200Z,22.92
2022-11-05T11:42:41.003Z,23.32
2022-11-05T11:43:44.963Z,23.12
2022-11-05T11:44:48.058Z,23.31
2022-11-05T11:45:53.171Z,23.71
2022-11-05T11:47:01.085Z,23.38
2022-11-05T11:48:08.100Z,22.30
2022-11-05T11:49:39.262Z,22.39
2022-11-05T11:50:44.134Z,21.61
2022-11-05T11:51:50.009Z,21.88
2022-11-05T11:52:52.436Z,22.20
2022-11-05T11:53:58.024Z,22.65
2022-11-05T11:55:09.443Z,22.31
2022-11-05T11:56:16.199Z,22.48
2022-11-05T11:57:26.844Z,21.89
2022-11-05T11:58:45.809Z,21.86
2022-11-05T12:00:07.753Z,21.21
2022-11-05T12:01:27.758Z,21.59
2022-11-05T12:03:01.474Z,20.38
2022-11-05T12:04:16.367Z,21.03
2022-11-05T12:05:37.332Z,21.63
2022-11-05T12:06:54.733Z,22.28
2022-11-05T12:08:08.288Z,21.99
2022-11-05T12:09:23.768Z,22.16
2022-11-05T12:11:15.293Z,22.31
2022-11-05T12:12:26.113Z,22.20
2022-11-05T12:13:52.374Z,21.92
2022-11-05T12:15:20.083Z,22.19
2022-11-05T12:16:31.400Z,21.36
2022-11-05T12:17:52.223Z,21.91
2022-11-05T12:19:15.782Z,22.16
2022-11-05T12:20:31.032Z,22.29
2022-11-05T12:21:58.692Z,22.25
2022-11-05T12:23:22.482Z,21.89
2022-11-05T12:24:49.429Z,21.75
2022-11-05T12:26:09.786Z,21.53
2022-11-05T12:27:27.168Z,21.33
2022-11-05T12:29:18.469Z,21.51
2022-11-05T12:30:22.040Z,22.11
2022-11-05T12:31:52.738Z,22.74
2022-11-05T12:32:54.854Z,22.83
2022-11-05T12:34:05.933Z,22.88
2022-11-05T12:35:36.153Z,23.21
2022-11-05T12:37:04.400Z,23.44
2022-11-05T12:38:24.799Z,23.69
2022-11-05T12:40:08.116Z,23.70
2022-11-05T12:41:19.275Z,23.08
2022-11-05T12:42:39.369Z,22.15
2022-11-05T12:43:53.666Z,22.10
2022-11-05T12:45:02.724Z,20.01
2022-11-05T12:46:29.092Z,20.69
2022-11-05T12:47:57.000Z,21.05
2022-11-05T12:49:07.970Z,20.75
2022-11-05T12:50:20.548Z,19.48
2022-11-05T12:51:38.542Z,18.35
2022-11-05T12:53:00.660Z,17.26
2022-11-05T12:54:17.706Z,17.25
2022-11-05T12:55:25.832Z,16.85
2022-11-05T12:56:38.179Z,16.82
2022-11-05T12:57:43.196Z,16.59
2022-11-05T12:58:50.723Z,16.61
2022-11-05T13:00:02.313Z,16.10
2022-11-05T13:01:12.912Z,15.94
2022-11-05T13:02:25.481Z,15.94
2022-11-05T13:03:37.079Z,16.12
2022-11-05T13:04:57.730Z,15.79
2022-11-05T13:06:09.599Z,15.81
2022-11-05T13:07:17.796Z,15.59
2022-11-05T13:08:41.414Z,15.53
2022-11-05T13:09:50.733Z,15.40
2022-11-05T13:10:59.746Z,15.37
2022-11-05T13:12:10.326Z,15.60
2022-11-05T13:13:34.763Z,15.25
2022-11-05T13:14:45.159Z,15.55
2022-11-05T13:15:58.589Z,15.40
2022-11-05T13:17:15.481Z,15.28
2022-11-05T13:18:23.789Z,15.25
2022-11-05T13:19:45.363Z,15.09
2022-11-05T13:20:51.174Z,15.32
2022-11-05T13:22:20.492Z,15.45
2022-11-05T13:23:31.212Z,15.39
2022-11-05T13:24:51.077Z,15.04
2022-11-05T13:26:02.002Z,14.86
2022-11-05T13:27:12.437Z,14.86
2022-11-05T13:28:23.472Z,14.99
2022-11-05T13:29:32.640Z,15.05
2022-11-05T13:30:38.506Z,14.98
2022-11-05T13:31:47.123Z,14.94
2022-11-05T13:33:04.648Z,14.91
2022-11-05T13:34:11.606Z,14.76
2022-11-05T13:35:30.391Z,14.57
2022-11-05T13:36:58.722Z,14.71
2022-11-05T13:38:26.052Z,14.45
2022-11-05T13:39:42.531Z,14.37
2022-11-05T13:41:29.936Z,14.17
2022-11-05T13:43:09.923Z,14.19
2022-11-05T13:44:37.680Z,14.25
2022-11-05T13:46:18.026Z,14.33
2022-11-05T13:47:37.468Z,14.27
2022-11-05T13:49:21.191Z,14.31
2022-11-05T13:50:32.631Z,14.26
2022-11-05T13:51:51.570Z,14.03
2022-11-05T13:53:05.641Z,14.01
2022-11-05T13:54:26.365Z,13.96
2022-11-05T13:55:31.363Z,13.94
2022-11-05T13:56:52.454Z,13.86
2022-11-05T13:58:22.789Z,13.87
2022-11-05T14:00:11.390Z,13.81
2022-11-05T14:01:13.517Z,13.73
2022-11-05T14:02:35.495Z,13.70
2022-11-05T14:03:38.217Z,13.56
2022-11-05T14:04:50.443Z,13.71
2022-11-05T14:06:02.675Z,13.76
2022-11-05T14:07:21.758Z,13.84
2022-11-05T14:08:27.840Z,13.86
2022-11-05T14:09:30.263Z,13.68
2022-11-05T14:10:38.090Z,13.89
2022-11-05T14:11:43.654Z,13.89
2022-11-05T14:12:52.934Z,13.90
2022-11-05T14:13:59.126Z,13.88
2022-11-05T14:15:17.661Z,13.87
2022-11-05T14:16:22.598Z,13.92
2022-11-05T14:17:33.142Z,14.01
2022-11-05T14:18:38.182Z,13.87
2022-11-05T14:20:06.386Z,13.83
2022-11-05T14:21:26.629Z,13.79
2022-11-05T14:22:31.635Z,13.82
2022-11-05T14:23:48.596Z,13.76
2022-11-05T14:24:50.798Z,13.66
2022-11-05T14:25:56.385Z,13.71
2022-11-05T14:27:01.278Z,13.63
2022-11-05T14:28:35.039Z,13.60
2022-11-05T14:29:44.987Z,13.68
2022-11-05T14:30:48.210Z,13.66
2022-11-05T14:32:08.748Z,13.66
2022-11-05T14:33:29.264Z,13.62
2022-11-05T14:35:00.363Z,13.56
2022-11-05T14:36:20.657Z,13.48
2022-11-05T14:37:27.221Z,13.24
2022-11-05T14:38:29.455Z,13.18
2022-11-05T14:39:32.463Z,13.32
2022-11-05T14:40:40.118Z,13.34
2022-11-05T14:42:18.565Z,13.28
2022-11-05T14:43:24.396Z,13.16
2022-11-05T14:44:28.088Z,12.96
2022-11-05T14:45:34.450Z,13.02
2022-11-05T14:46:41.748Z,13.03
2022-11-05T14:47:53.108Z,13.08
2022-11-05T14:49:09.041Z,13.07
2022-11-05T14:50:22.278Z,13.03
2022-11-05T14:51:30.397Z,13.09
2022-11-05T14:52:33.058Z,13.02
2022-11-05T14:53:38.910Z,13.05
2022-11-05T14:54:48.997Z,13.10
2022-11-05T14:56:19.178Z,12.96
2022-11-05T14:57:42.961Z,13.07
2022-11-05T14:58:46.254Z,12.98
2022-11-05T15:00:00.882Z,13.00
2022-11-05T15:01:08.596Z,12.80